Time;durP1;ratioP1;P1;durP2;ratioP2;P2;SDS_P1;SDS_P2;PMS_P1;PMS_P2;Temp;Humidity;BMP_temperature;BMP_pressure;BME280_temperature;BME280_humidity;BME280_pressure;Samples;Min_cycle;Max_cycle;Signal;HPM_P1;HPM_P2
2023/12/30 00:01:41;;;;;;;2.95;1.00;;;;;;;20.58;46.02;100803.66;5010312;28;96907;-77
2023/12/30 00:04:06;;;;;;;3.53;0.75;;;;;;;20.58;46.52;100801.84;4988710;28;99247;-77
2023/12/30 00:06:33;;;;;;;2.00;0.60;;;;;;;20.59;46.02;100810.66;5007557;28;99159;-77
2023/12/30 00:08:58;;;;;;;2.80;0.63;;;;;;;20.58;46.44;100811.59;5007743;28;96821;-77
2023/12/30 00:11:23;;;;;;;1.60;0.57;;;;;;;20.58;46.13;100825.69;4992656;28;117828;-77
2023/12/30 00:13:49;;;;;;;1.55;0.82;;;;;;;20.59;46.08;100821.25;5000940;28;97347;-77
2023/12/30 00:16:14;;;;;;;2.55;0.80;;;;;;;20.59;46.32;100818.63;4990450;28;100814;-77
2023/12/30 00:18:40;;;;;;;2.63;0.93;;;;;;;20.59;46.36;100822.16;4992303;28;102693;-77
2023/12/30 00:21:05;;;;;;;2.40;0.85;;;;;;;20.58;46.12;100828.34;5007609;28;97365;-76
2023/12/30 00:23:30;;;;;;;2.10;0.75;;;;;;;20.57;46.41;100833.69;5008667;28;111101;-77
2023/12/30 00:25:56;;;;;;;2.33;0.70;;;;;;;20.57;46.25;100834.59;5007780;28;99213;-76
2023/12/30 00:28:21;;;;;;;2.10;0.70;;;;;;;20.57;46.34;100839.00;5006043;28;117048;-77
2023/12/30 00:30:47;;;;;;;1.25;0.50;;;;;;;20.59;46.15;100842.47;5005032;28;97037;-77
2023/12/30 00:33:13;;;;;;;3.42;0.80;;;;;;;20.59;46.23;100846.00;5006499;28;96786;-77
2023/12/30 00:35:38;;;;;;;2.80;0.80;;;;;;;20.58;46.42;100854.84;5002231;28;96784;-76
2023/12/30 00:38:04;;;;;;;3.30;0.98;;;;;;;20.59;46.16;100853.06;5008805;28;117393;-77
2023/12/30 00:40:29;;;;;;;4.32;1.00;;;;;;;20.59;46.17;100859.25;5011671;28;96761;-77
2023/12/30 00:42:54;;;;;;;2.78;0.60;;;;;;;20.60;45.98;100871.56;5005042;28;128210;-77
2023/12/30 00:45:20;;;;;;;4.05;0.85;;;;;;;20.59;46.23;100864.56;4998607;28;98235;-77
2023/12/30 00:47:45;;;;;;;3.15;1.10;;;;;;;20.61;46.09;100864.50;5006705;28;96942;-77
2023/12/30 00:50:11;;;;;;;2.47;0.90;;;;;;;20.61;46.10;100877.75;5005556;28;99440;-77
2023/12/30 00:52:36;;;;;;;2.22;0.70;;;;;;;20.60;46.34;100871.56;5009349;28;99099;-77
2023/12/30 00:55:02;;;;;;;2.50;0.75;;;;;;;20.61;46.00;100864.50;5004924;28;97379;-77
2023/12/30 00:57:27;;;;;;;2.13;0.63;;;;;;;20.61;46.17;100859.22;5002411;28;97932;-77
2023/12/30 00:59:53;;;;;;;3.47;0.88;;;;;;;20.62;46.01;100872.41;5003552;28;119341;-77
2023/12/30 01:02:18;;;;;;;2.67;0.70;;;;;;;20.61;46.02;100870.69;4989244;28;96954;-77
2023/12/30 01:04:43;;;;;;;3.95;0.90;;;;;;;20.61;46.10;100883.94;5000414;28;125379;-77
2023/12/30 01:07:09;;;;;;;2.00;0.82;;;;;;;20.61;46.28;100886.59;5006809;28;97327;-77
2023/12/30 01:09:35;;;;;;;3.00;1.00;;;;;;;20.61;46.24;100883.06;5008426;28;96880;-77
2023/12/30 01:12:00;;;;;;;4.15;0.80;;;;;;;20.60;46.18;100886.63;5006369;28;99670;-77
2023/12/30 01:14:25;;;;;;;1.90;0.60;;;;;;;20.60;45.83;100895.41;4997132;28;99885;-77
2023/12/30 01:16:51;;;;;;;2.67;0.98;;;;;;;20.61;45.84;100894.56;5007760;28;116325;-77
2023/12/30 01:19:16;;;;;;;3.15;0.93;;;;;;;20.62;45.97;100898.06;5005122;28;114868;-77
2023/12/30 01:21:41;;;;;;;2.45;0.85;;;;;;;20.61;45.88;100907.81;5015740;28;127594;-77
2023/12/30 01:24:07;;;;;;;1.90;0.80;;;;;;;20.61;46.23;100902.50;5008906;28;96751;-77
2023/12/30 01:26:32;;;;;;;3.58;1.02;;;;;;;20.62;45.90;100906.00;4989700;28;97396;-77
2023/12/30 01:28:58;;;;;;;2.85;0.80;;;;;;;20.63;46.03;100910.41;5003594;28;115537;-76
2023/12/30 01:31:24;;;;;;;2.85;0.90;;;;;;;20.61;45.77;100918.41;4995693;28;97433;-77
2023/12/30 01:33:49;;;;;;;2.42;1.05;;;;;;;20.63;45.81;100926.31;5009898;28;102018;-77
2023/12/30 01:36:15;;;;;;;2.85;0.77;;;;;;;20.62;45.83;100924.56;4994750;28;103772;-77
2023/12/30 01:38:41;;;;;;;4.60;0.80;;;;;;;20.60;45.76;100913.97;4997465;28;99775;-77
2023/12/30 01:41:08;;;;;;;1.88;0.70;;;;;;;20.62;45.79;100908.66;4993771;28;99253;-77
2023/12/30 01:43:33;;;;;;;3.80;1.10;;;;;;;20.62;45.99;100912.19;5006460;28;100191;-77
2023/12/30 01:46:06;;;;;;;1.45;0.60;;;;;;;20.60;45.88;100921.91;5001650;28;96895;-77
2023/12/30 01:48:32;;;;;;;3.67;1.02;;;;;;;20.61;45.75;100915.75;5006676;28;96750;-77
2023/12/30 01:51:00;;;;;;;2.78;0.80;;;;;;;20.61;45.75;100925.47;5009329;28;97457;-77
2023/12/30 01:53:27;;;;;;;3.53;0.80;;;;;;;20.62;45.87;100924.56;4998370;28;100027;-77
2023/12/30 01:55:54;;;;;;;1.95;0.60;;;;;;;20.61;45.92;100928.13;4997491;28;97285;-77
2023/12/30 01:58:21;;;;;;;3.63;1.08;;;;;;;20.62;45.74;100930.72;4987950;28;96948;-76
2023/12/30 02:00:51;;;;;;;3.15;1.17;;;;;;;20.61;45.78;100942.25;4991075;28;100881;-77
2023/12/30 02:03:18;;;;;;;2.85;0.90;;;;;;;20.63;45.80;100936.91;5010425;28;98229;-77
2023/12/30 02:05:45;;;;;;;2.15;0.60;;;;;;;20.63;45.65;100942.22;5007845;28;96788;-77
2023/12/30 02:08:12;;;;;;;4.75;1.00;;;;;;;20.64;45.52;100949.25;5009072;28;97206;-77
2023/12/30 02:10:37;;;;;;;2.90;0.90;;;;;;;20.64;45.76;100943.94;5006964;28;96899;-77
2023/12/30 02:13:03;;;;;;;3.03;0.75;;;;;;;20.63;45.67;100951.03;4990569;28;99013;-76
2023/12/30 02:15:28;;;;;;;4.18;1.13;;;;;;;20.63;45.79;100948.38;5006104;28;96966;-77
2023/12/30 02:17:55;;;;;;;2.28;0.70;;;;;;;20.63;45.72;100943.06;5006496;28;97780;-77
2023/12/30 02:20:20;;;;;;;1.88;0.60;;;;;;;20.62;45.52;100951.94;5009014;28;97892;-77
2023/12/30 02:22:46;;;;;;;2.08;0.68;;;;;;;20.63;45.80;100958.97;5012716;28;97321;-76
2023/12/30 02:25:12;;;;;;;4.13;0.95;;;;;;;20.63;45.54;100956.31;5016176;27;97411;-77
2023/12/30 02:27:37;;;;;;;2.97;0.88;;;;;;;20.62;46.01;100970.47;5010143;27;96803;-77
2023/12/30 02:30:03;;;;;;;2.35;1.00;;;;;;;20.63;45.54;100956.31;5008235;28;99577;-77
2023/12/30 02:32:29;;;;;;;3.33;1.00;;;;;;;20.63;45.80;100956.31;5002387;28;100263;-77
2023/12/30 02:34:54;;;;;;;3.30;1.02;;;;;;;20.63;45.61;100952.81;5000343;28;117639;-77
2023/12/30 02:37:19;;;;;;;2.42;0.70;;;;;;;20.62;45.67;100946.63;5022936;28;96719;-77
2023/12/30 02:39:45;;;;;;;1.52;0.70;;;;;;;20.62;45.84;100951.06;5008338;28;96848;-77
2023/12/30 02:42:11;;;;;;;2.33;0.63;;;;;;;20.62;45.88;100956.38;5014721;28;97368;-77
2023/12/30 02:44:36;;;;;;;2.42;1.00;;;;;;;20.61;45.83;100966.09;5003860;28;96691;-77
2023/12/30 02:47:02;;;;;;;3.78;1.00;;;;;;;20.62;45.50;100969.63;5013012;28;97031;-77
2023/12/30 02:49:31;;;;;;;3.33;0.90;;;;;;;20.61;45.66;100957.25;5012634;28;100213;-76
2023/12/30 02:51:57;;;;;;;4.13;0.93;;;;;;;20.61;45.76;100963.47;5020517;28;97276;-77
2023/12/30 02:54:22;;;;;;;1.75;0.82;;;;;;;20.61;45.78;100968.75;5010493;28;96895;-77
2023/12/30 02:56:48;;;;;;;3.28;0.80;;;;;;;20.62;45.46;100966.97;5011411;28;98682;-77
2023/12/30 02:59:13;;;;;;;2.55;0.80;;;;;;;20.62;45.50;100969.63;4989248;28;125295;-77
2023/12/30 03:01:38;;;;;;;2.22;0.63;;;;;;;20.62;45.43;100961.66;5006578;28;126674;-77
2023/12/30 03:04:04;;;;;;;4.35;0.80;;;;;;;20.62;45.34;100973.13;5018658;28;109506;-77
2023/12/30 03:06:29;;;;;;;3.13;0.90;;;;;;;20.62;45.61;100974.91;5024130;28;97216;-77
2023/12/30 03:08:55;;;;;;;4.30;0.90;;;;;;;20.61;45.27;100973.16;5011540;28;98284;-76
2023/12/30 03:11:21;;;;;;;2.42;0.85;;;;;;;20.62;45.41;100985.50;5019636;28;98564;-77
2023/12/30 03:13:46;;;;;;;3.15;0.85;;;;;;;20.61;45.43;100974.06;4991424;28;96770;-76
2023/12/30 03:16:15;;;;;;;2.38;0.63;;;;;;;20.61;45.37;100974.06;5004079;28;96867;-76
2023/12/30 03:18:42;;;;;;;3.70;0.80;;;;;;;20.62;45.54;100974.91;5012196;28;99541;-77
2023/12/30 03:21:09;;;;;;;1.92;0.70;;;;;;;20.62;45.59;100986.38;5019401;28;97437;-77
2023/12/30 03:23:35;;;;;;;3.20;0.80;;;;;;;20.63;45.49;100985.47;5014693;28;96589;-77
2023/12/30 03:26:02;;;;;;;2.67;0.82;;;;;;;20.63;45.24;100979.31;5004470;28;96956;-77
2023/12/30 03:28:28;;;;;;;3.22;0.75;;;;;;;20.62;45.29;100982.88;5015993;28;98202;-76
2023/12/30 03:30:54;;;;;;;2.47;0.80;;;;;;;20.62;45.17;100996.97;5006708;28;100287;-77
2023/12/30 03:33:19;;;;;;;3.40;0.82;;;;;;;20.63;45.32;100987.28;5028049;28;96872;-77
2023/12/30 03:35:44;;;;;;;2.95;0.90;;;;;;;20.63;45.12;100985.47;5015107;27;96940;-77
2023/12/30 03:38:10;;;;;;;2.88;1.17;;;;;;;20.63;45.27;100987.28;5023663;27;96650;-76
2023/12/30 03:40:35;;;;;;;3.70;0.95;;;;;;;20.62;45.33;100973.13;5018717;28;99569;-76
2023/12/30 03:43:01;;;;;;;3.85;0.90;;;;;;;20.62;45.35;100981.06;5000995;28;96863;-77
2023/12/30 03:45:27;;;;;;;3.05;0.70;;;;;;;20.63;45.19;100992.56;5026304;28;96922;-76
2023/12/30 03:47:52;;;;;;;2.80;0.80;;;;;;;20.61;45.56;100989.97;5027138;28;116145;-77
2023/12/30 03:50:18;;;;;;;1.77;0.60;;;;;;;20.62;45.34;100994.31;5010999;28;97987;-77
2023/12/30 03:52:43;;;;;;;3.88;0.98;;;;;;;20.63;45.16;101000.53;4992145;28;96921;-77
2023/12/30 03:55:09;;;;;;;3.50;0.90;;;;;;;20.63;45.33;101000.53;5006356;28;116511;-77
2023/12/30 03:57:34;;;;;;;3.00;0.70;;;;;;;20.63;45.22;101003.16;5011779;28;99545;-77
2023/12/30 04:00:00;;;;;;;3.72;0.90;;;;;;;20.63;45.14;100998.72;5014916;28;100209;-77
2023/12/30 04:02:26;;;;;;;2.80;0.85;;;;;;;20.64;45.46;101005.78;4990733;28;97141;-77
2023/12/30 04:04:52;;;;;;;3.13;0.85;;;;;;;20.63;45.12;101004.03;5007777;28;97045;-77
2023/12/30 04:07:18;;;;;;;3.65;0.90;;;;;;;20.64;45.29;101005.78;5011870;28;122822;-76
2023/12/30 04:09:43;;;;;;;2.15;0.80;;;;;;;20.63;45.21;101001.38;5007318;27;97405;-77
2023/12/30 04:12:09;;;;;;;2.72;0.98;;;;;;;20.64;45.38;100999.59;4987634;28;98863;-77
2023/12/30 04:14:35;;;;;;;3.72;1.00;;;;;;;20.63;45.43;101000.53;5007737;28;96986;-77
2023/12/30 04:17:00;;;;;;;2.63;0.75;;;;;;;20.62;45.27;101007.56;5015983;28;99231;-77
2023/12/30 04:19:26;;;;;;;2.35;0.80;;;;;;;20.64;45.18;101007.53;5013195;28;99200;-76
2023/12/30 04:21:51;;;;;;;3.35;0.80;;;;;;;20.64;45.27;101010.19;5015141;28;96750;-77
2023/12/30 04:24:18;;;;;;;2.13;0.80;;;;;;;20.63;45.00;101008.47;5009567;28;96716;-77
2023/12/30 04:26:44;;;;;;;2.20;0.88;;;;;;;20.62;44.89;101006.72;5004113;28;97070;-77
2023/12/30 04:29:11;;;;;;;3.08;0.47;;;;;;;20.62;45.09;101012.03;5012281;28;98255;-77
2023/12/30 04:31:36;;;;;;;2.58;0.80;;;;;;;20.63;45.04;101013.78;5011189;28;97153;-76
2023/12/30 04:34:02;;;;;;;1.92;0.80;;;;;;;20.62;45.15;101012.88;5021569;28;97414;-77
2023/12/30 04:36:27;;;;;;;4.18;0.73;;;;;;;20.64;45.07;101012.84;5028999;27;97136;-77
2023/12/30 04:38:53;;;;;;;3.22;0.60;;;;;;;20.63;45.05;101019.06;5008924;27;98146;-77
2023/12/30 04:41:20;;;;;;;2.85;0.70;;;;;;;20.62;45.27;101012.88;5021154;27;97475;-77
2023/12/30 04:43:46;;;;;;;1.85;0.68;;;;;;;20.62;45.01;101015.53;5002094;28;96963;-77
2023/12/30 04:46:11;;;;;;;2.95;0.80;;;;;;;20.62;45.29;101018.19;5009337;28;126278;-77
2023/12/30 04:48:37;;;;;;;2.45;0.73;;;;;;;20.62;45.16;101018.19;5015061;28;97375;-77
2023/12/30 04:51:03;;;;;;;4.25;0.70;;;;;;;20.61;44.97;101024.41;5010839;28;97319;-77
2023/12/30 04:53:29;;;;;;;2.70;0.90;;;;;;;20.63;45.00;101027.88;5009300;28;97113;-77
2023/12/30 04:55:54;;;;;;;3.58;0.80;;;;;;;20.62;45.25;101023.47;5010529;28;100220;-77
2023/12/30 04:58:19;;;;;;;2.17;0.80;;;;;;;20.63;45.07;101034.97;5013092;28;99872;-77
2023/12/30 05:00:45;;;;;;;2.42;0.80;;;;;;;20.63;44.93;101032.31;5003286;28;97167;-76
2023/12/30 05:03:10;;;;;;;2.28;0.70;;;;;;;20.63;44.89;101027.03;5004663;28;96971;-76
2023/12/30 05:05:35;;;;;;;1.88;0.80;;;;;;;20.62;44.89;101026.13;5002624;28;127193;-77
2023/12/30 05:08:02;;;;;;;1.70;0.80;;;;;;;20.63;45.12;101029.69;5017759;28;105105;-77
2023/12/30 05:10:27;;;;;;;4.28;0.93;;;;;;;20.62;45.07;101033.22;4997488;28;96952;-77
2023/12/30 05:12:52;;;;;;;1.80;0.55;;;;;;;20.61;44.86;101032.34;5017638;27;96820;-77
2023/12/30 05:15:18;;;;;;;2.85;0.90;;;;;;;20.62;44.80;101031.44;5019375;28;126725;-77
2023/12/30 05:17:43;;;;;;;3.40;0.88;;;;;;;20.62;45.10;101030.56;5019434;27;96891;-77
2023/12/30 05:20:12;;;;;;;2.85;0.70;;;;;;;20.62;45.13;101035.88;5021366;28;97028;-76
2023/12/30 05:22:39;;;;;;;2.63;0.98;;;;;;;20.62;44.87;101039.38;5011155;28;97098;-77
2023/12/30 05:25:05;;;;;;;3.15;0.80;;;;;;;20.62;44.85;101039.38;5028939;27;97682;-77
2023/12/30 05:27:31;;;;;;;3.35;0.88;;;;;;;20.62;45.02;101036.72;5010934;28;97604;-77
2023/12/30 05:29:56;;;;;;;2.85;0.60;;;;;;;20.62;44.94;101055.28;5006455;28;96898;-77
2023/12/30 05:32:22;;;;;;;2.22;0.60;;;;;;;20.62;45.03;101051.78;5000741;28;116261;-76
2023/12/30 05:34:47;;;;;;;3.10;0.88;;;;;;;20.63;44.79;101058.81;5006756;28;116851;-77
2023/12/30 05:37:12;;;;;;;2.38;0.70;;;;;;;20.62;44.72;101059.72;5010059;28;103337;-76
2023/12/30 05:39:38;;;;;;;2.58;0.60;;;;;;;20.62;44.97;101065.03;5005523;28;96961;-77
2023/12/30 05:42:03;;;;;;;3.53;0.90;;;;;;;20.62;45.02;101065.03;5014616;28;97319;-77
2023/12/30 05:44:29;;;;;;;2.45;0.90;;;;;;;20.61;44.87;101058.84;5009660;28;96889;-76
2023/12/30 05:46:54;;;;;;;2.80;0.93;;;;;;;20.61;44.86;101057.97;5002102;28;126419;-76
2023/12/30 05:49:19;;;;;;;3.08;0.93;;;;;;;20.61;45.19;101060.63;5007043;28;116871;-77
2023/12/30 05:51:45;;;;;;;2.30;0.82;;;;;;;20.61;44.93;101055.31;5010101;28;97769;-77
2023/12/30 05:54:10;;;;;;;3.85;0.73;;;;;;;20.62;45.03;101054.41;5007269;28;97855;-77
2023/12/30 05:56:36;;;;;;;2.22;0.70;;;;;;;20.61;45.24;101060.63;5016459;28;97370;-76
2023/12/30 05:59:01;;;;;;;1.98;0.80;;;;;;;20.62;45.12;101059.72;5005336;28;105038;-76
2023/12/30 06:01:27;;;;;;;2.88;1.00;;;;;;;20.61;45.22;101065.91;5000871;28;97362;-77
2023/12/30 06:03:52;;;;;;;3.22;0.80;;;;;;;20.61;44.72;101077.41;5008292;28;97505;-77
2023/12/30 06:06:18;;;;;;;2.50;0.70;;;;;;;20.61;45.10;101080.06;5012610;28;97131;-76
2023/12/30 06:08:43;;;;;;;2.92;1.02;;;;;;;20.61;44.68;101077.41;5008427;28;115845;-77
2023/12/30 06:11:08;;;;;;;2.58;0.95;;;;;;;20.62;44.99;101078.28;5012999;28;96854;-76
2023/12/30 06:13:34;;;;;;;2.25;1.02;;;;;;;20.61;44.92;101088.00;5012231;28;96809;-77
2023/12/30 06:16:00;;;;;;;3.92;1.02;;;;;;;20.61;45.03;101085.38;5012110;28;97206;-77
2023/12/30 06:18:30;;;;;;;3.33;0.80;;;;;;;20.60;44.79;101083.56;5013344;28;117166;-76
2023/12/30 06:20:58;;;;;;;3.47;0.90;;;;;;;20.60;44.88;101082.72;5015565;28;96789;-76
2023/12/30 06:23:23;;;;;;;2.35;0.82;;;;;;;20.60;44.79;101080.91;5013554;28;97349;-76
2023/12/30 06:25:49;;;;;;;3.58;0.90;;;;;;;20.59;45.04;101088.91;5013668;28;111577;-77
2023/12/30 06:28:14;;;;;;;4.13;1.05;;;;;;;20.59;44.68;101089.81;5014113;28;111190;-77
2023/12/30 06:30:39;;;;;;;2.80;0.70;;;;;;;20.60;44.72;101088.88;5015369;28;110421;-77
2023/12/30 06:33:06;;;;;;;2.10;0.80;;;;;;;20.61;44.57;101093.31;4996873;28;97746;-77
2023/12/30 06:35:33;;;;;;;1.80;0.60;;;;;;;20.61;44.97;101095.97;5014699;28;98391;-76
2023/12/30 06:38:00;;;;;;;2.40;0.80;;;;;;;20.62;44.69;101100.34;5015026;28;96747;-77
2023/12/30 06:40:25;;;;;;;3.28;0.73;;;;;;;20.62;44.69;101107.44;5014919;28;98241;-77
2023/12/30 06:42:50;;;;;;;2.70;0.60;;;;;;;20.61;44.72;101103.91;5008881;28;126399;-77
2023/12/30 06:45:16;;;;;;;2.72;0.80;;;;;;;20.60;44.95;101110.06;5017050;28;120352;-76
2023/12/30 06:47:42;;;;;;;3.03;0.70;;;;;;;20.61;44.81;101110.97;5022779;28;116229;-76
2023/12/30 06:50:07;;;;;;;1.90;0.60;;;;;;;20.61;44.69;101103.03;5018364;28;97270;-76
2023/12/30 06:52:33;;;;;;;2.35;0.93;;;;;;;20.61;44.66;101117.16;5028612;27;98227;-76
2023/12/30 06:54:59;;;;;;;3.05;0.88;;;;;;;20.59;44.97;101116.31;5032205;27;96592;-77
2023/12/30 06:57:25;;;;;;;4.07;0.80;;;;;;;20.61;44.57;101116.28;5024966;28;96735;-77
2023/12/30 06:59:50;;;;;;;2.92;0.80;;;;;;;20.60;44.67;101114.50;5011907;28;96847;-77
2023/12/30 07:02:16;;;;;;;2.53;0.60;;;;;;;20.61;44.55;101122.47;5012239;28;96865;-76
2023/12/30 07:04:41;;;;;;;5.18;1.00;;;;;;;20.59;44.90;101113.66;5012509;28;97242;-77
2023/12/30 07:07:07;;;;;;;2.10;0.60;;;;;;;20.61;44.54;101111.88;5012747;28;98098;-77
2023/12/30 07:09:32;;;;;;;2.58;0.80;;;;;;;20.60;44.74;101117.16;4997385;28;97261;-77
2023/12/30 07:11:57;;;;;;;2.35;0.90;;;;;;;20.60;44.67;101118.03;5015509;27;97188;-77
2023/12/30 07:14:23;;;;;;;2.85;1.05;;;;;;;20.59;44.96;101116.31;5019859;28;125617;-77
2023/12/30 07:16:49;;;;;;;2.83;1.08;;;;;;;20.59;44.66;101129.56;5008012;28;117059;-76
2023/12/30 07:19:15;;;;;;;2.28;1.00;;;;;;;20.59;44.68;101126.91;5018979;28;97148;-77
2023/12/30 07:21:40;;;;;;;3.15;0.70;;;;;;;20.60;44.62;101130.41;5011192;28;99032;-77
2023/12/30 07:24:06;;;;;;;3.38;0.93;;;;;;;20.58;44.62;101122.50;5006865;28;125821;-77
2023/12/30 07:26:32;;;;;;;3.33;1.10;;;;;;;20.59;44.83;101129.56;5005164;28;96770;-77
2023/12/30 07:28:59;;;;;;;3.45;0.90;;;;;;;20.60;44.64;101118.03;5002324;28;97624;-77
2023/12/30 07:31:25;;;;;;;2.97;0.80;;;;;;;20.60;44.69;101117.16;5009518;28;96909;-77
2023/12/30 07:33:51;;;;;;;3.22;0.82;;;;;;;20.60;44.43;101118.03;5019135;28;97407;-77
2023/12/30 07:36:16;;;;;;;2.33;0.82;;;;;;;20.61;44.64;101117.16;5010780;27;96906;-77
2023/12/30 07:38:42;;;;;;;3.00;1.08;;;;;;;20.61;44.72;101119.81;5013772;28;96967;-77
2023/12/30 07:41:07;;;;;;;3.17;0.93;;;;;;;20.60;44.82;101123.31;5010529;28;97426;-77
2023/12/30 07:43:33;;;;;;;2.13;0.60;;;;;;;20.60;44.73;101141.88;5014151;28;97378;-77
2023/12/30 07:45:58;;;;;;;1.83;0.63;;;;;;;20.60;44.47;101143.66;5016210;28;96790;-77
2023/12/30 07:48:23;;;;;;;3.15;0.70;;;;;;;20.60;44.79;101141.00;5014556;28;96734;-77
2023/12/30 07:50:49;;;;;;;2.40;0.60;;;;;;;20.60;44.49;101148.97;5005433;28;97641;-77
2023/12/30 07:53:14;;;;;;;2.70;0.73;;;;;;;20.60;44.79;101149.81;5009464;28;98685;-77
2023/12/30 07:55:39;;;;;;;2.75;0.80;;;;;;;20.60;44.56;101152.47;5009664;28;97258;-77
2023/12/30 07:58:05;;;;;;;3.88;1.35;;;;;;;20.59;44.54;101153.41;5006445;28;116714;-77
2023/12/30 08:00:31;;;;;;;4.10;0.80;;;;;;;20.58;44.49;101156.94;5001751;28;99072;-77
2023/12/30 08:02:56;;;;;;;2.70;0.82;;;;;;;20.59;44.64;101156.06;5008914;28;97675;-77
2023/12/30 08:05:21;;;;;;;2.53;0.80;;;;;;;20.58;44.45;101162.25;5007486;28;116967;-77
2023/12/30 08:07:47;;;;;;;4.80;0.90;;;;;;;20.59;44.72;101173.72;5010081;28;117868;-76
2023/12/30 08:10:12;;;;;;;3.75;0.85;;;;;;;20.59;44.68;101179.91;5007322;27;99463;-77
2023/12/30 08:12:38;;;;;;;3.08;0.93;;;;;;;20.60;44.82;101183.41;5011392;28;96607;-77
2023/12/30 08:15:04;;;;;;;3.90;0.80;;;;;;;20.60;44.40;101173.69;5012032;28;96671;-77
2023/12/30 08:17:30;;;;;;;1.77;0.80;;;;;;;20.60;44.48;101183.41;4993776;28;96868;-77
2023/12/30 08:19:56;;;;;;;1.73;0.60;;;;;;;20.60;44.33;101183.41;5010548;28;97621;-77
2023/12/30 08:22:23;;;;;;;3.42;0.90;;;;;;;20.60;44.49;101183.41;5010671;28;97511;-77
2023/12/30 08:24:50;;;;;;;4.07;0.77;;;;;;;20.59;44.76;101185.22;5003994;28;97629;-77
2023/12/30 08:27:16;;;;;;;3.58;0.88;;;;;;;20.60;44.58;101183.41;5010226;28;97314;-76
2023/12/30 08:29:41;;;;;;;3.13;1.00;;;;;;;20.60;44.74;101189.59;5013066;28;97693;-77
2023/12/30 08:32:07;;;;;;;3.33;0.93;;;;;;;20.61;44.43;101182.53;5014969;28;97726;-77
2023/12/30 08:34:33;;;;;;;2.63;0.82;;;;;;;20.60;44.84;101178.97;5011660;28;98578;-77
2023/12/30 08:36:58;;;;;;;1.90;0.82;;;;;;;20.60;44.77;101180.75;5013735;28;97373;-76
2023/12/30 08:39:25;;;;;;;2.65;0.88;;;;;;;20.59;44.77;101185.22;5010633;28;97521;-76
2023/12/30 08:41:52;;;;;;;2.42;1.00;;;;;;;20.59;44.24;101182.56;5008604;28;97774;-78
2023/12/30 08:44:17;;;;;;;3.58;0.85;;;;;;;20.60;44.66;101180.75;5003763;28;96747;-78
2023/12/30 08:46:43;;;;;;;3.17;0.73;;;;;;;20.60;44.72;101189.59;5006478;28;96893;-77
2023/12/30 08:49:08;;;;;;;1.98;0.80;;;;;;;20.60;44.74;101186.06;5008588;28;113757;-77
2023/12/30 08:51:33;;;;;;;3.03;0.70;;;;;;;20.60;44.70;101186.94;5010315;28;121142;-77
2023/12/30 08:53:59;;;;;;;2.80;0.85;;;;;;;20.59;44.52;101181.66;5008481;28;96759;-79
2023/12/30 08:56:31;;;;;;;3.83;0.90;;;;;;;20.59;44.55;101192.25;5010855;28;96986;-77
2023/12/30 08:58:56;;;;;;;2.47;0.85;;;;;;;20.59;44.61;101184.31;5001758;28;96781;-77
2023/12/30 09:01:21;;;;;;;3.90;0.82;;;;;;;20.59;44.68;101185.22;5002167;28;126593;-77
2023/12/30 09:03:47;;;;;;;2.40;0.80;;;;;;;20.61;44.57;101190.47;5004861;28;96869;-77
2023/12/30 09:06:12;;;;;;;2.28;0.77;;;;;;;20.60;44.67;101188.72;5008656;28;97492;-77
2023/12/30 09:08:38;;;;;;;3.85;0.70;;;;;;;20.60;44.48;101181.63;5001546;28;125630;-77
2023/12/30 09:11:03;;;;;;;3.65;0.90;;;;;;;20.60;44.54;101189.59;5002143;28;97330;-77
2023/12/30 09:13:28;;;;;;;3.42;0.82;;;;;;;20.60;44.46;101194.03;4993618;28;96900;-77
2023/12/30 09:15:54;;;;;;;3.63;0.80;;;;;;;20.59;44.44;101193.16;5002874;28;116917;-77
2023/12/30 09:18:19;;;;;;;2.65;0.88;;;;;;;20.59;44.43;101198.47;4977808;28;98102;-78
2023/12/30 09:20:44;;;;;;;2.08;0.90;;;;;;;20.60;44.71;101199.31;5010461;28;96873;-80
2023/12/30 09:23:10;;;;;;;3.92;1.00;;;;;;;20.59;44.36;101206.41;5006358;28;96931;-77
2023/12/30 09:25:35;;;;;;;3.20;0.70;;;;;;;20.60;44.57;101210.78;5002181;28;117033;-77
2023/12/30 09:28:00;;;;;;;3.00;0.85;;;;;;;20.60;44.53;101210.78;4998357;28;115281;-77
2023/12/30 09:30:26;;;;;;;2.08;0.80;;;;;;;20.61;44.69;101217.88;5009410;28;124762;-80
2023/12/30 09:32:51;;;;;;;3.10;0.70;;;;;;;20.60;44.64;101217.88;5004521;28;114053;-77
2023/12/30 09:35:16;;;;;;;3.30;0.85;;;;;;;20.60;44.56;101215.22;5020976;28;107958;-77
2023/12/30 09:37:42;;;;;;;2.70;0.90;;;;;;;20.60;44.63;101220.53;4996521;28;126091;-80
2023/12/30 09:40:08;;;;;;;3.97;0.73;;;;;;;20.59;44.73;101224.97;5020520;28;97129;-77
2023/12/30 09:42:34;;;;;;;3.17;0.77;;;;;;;20.60;44.86;101221.38;4997807;28;97264;-77
2023/12/30 09:45:01;;;;;;;2.95;0.63;;;;;;;20.60;44.73;101231.13;5023074;28;97583;-77
2023/12/30 09:47:28;;;;;;;3.78;0.85;;;;;;;20.58;44.78;101239.09;5015036;28;97141;-77
2023/12/30 09:49:55;;;;;;;3.80;0.85;;;;;;;20.63;44.59;101239.03;4989079;28;96878;-71
2023/12/30 09:52:20;;;;;;;4.55;0.90;;;;;;;20.64;45.02;101232.81;5007212;28;97337;-74
2023/12/30 09:54:46;;;;;;;4.40;0.70;;;;;;;20.64;44.94;101244.31;5008639;28;110237;-78
2023/12/30 09:57:12;;;;;;;6.38;0.95;;;;;;;20.67;45.03;101244.22;5009073;28;97487;-74
2023/12/30 09:59:39;;;;;;;5.38;0.93;;;;;;;20.68;45.37;101238.03;5010562;28;97194;-75
2023/12/30 10:02:07;;;;;;;2.50;0.82;;;;;;;20.72;45.43;101241.47;5008316;28;96745;-76
2023/12/30 10:04:33;;;;;;;2.25;0.80;;;;;;;20.76;45.45;101236.97;5011759;28;96854;-73
2023/12/30 10:06:58;;;;;;;6.93;0.90;;;;;;;20.75;45.35;101241.41;5009121;28;97564;-75
2023/12/30 10:09:23;;;;;;;4.90;0.90;;;;;;;20.76;45.65;101237.84;5016984;27;99840;-77
2023/12/30 10:11:52;;;;;;;1.73;0.57;;;;;;;20.77;45.68;101236.06;5012752;28;97265;-78
2023/12/30 10:14:17;;;;;;;3.60;0.90;;;;;;;20.79;45.40;101226.31;5012237;28;97270;-78
2023/12/30 10:16:43;;;;;;;2.55;0.80;;;;;;;20.77;45.15;101218.38;4999087;28;126892;-78
2023/12/30 10:19:09;;;;;;;4.45;0.90;;;;;;;20.77;45.33;101226.34;5006131;28;97270;-78
2023/12/30 10:21:37;;;;;;;4.18;0.88;;;;;;;20.78;45.05;101220.09;5005768;28;97161;-79
2023/12/30 10:24:04;;;;;;;2.88;0.68;;;;;;;20.79;45.49;101228.97;5000109;28;96834;-76
2023/12/30 10:26:30;;;;;;;3.08;0.80;;;;;;;20.77;45.52;101226.34;4999279;28;97672;-75
2023/12/30 10:28:55;;;;;;;2.63;0.82;;;;;;;20.78;45.29;101225.41;5004225;28;97296;-77
2023/12/30 10:31:21;;;;;;;5.07;0.77;;;;;;;20.79;45.51;101226.31;5006253;28;117064;-76
2023/12/30 10:33:52;;;;;;;4.72;0.85;;;;;;;20.79;45.85;101226.31;5008507;28;117245;-76
2023/12/30 10:36:18;;;;;;;3.72;1.15;;;;;;;20.78;45.50;101225.41;4999439;28;97414;-76
2023/12/30 10:38:43;;;;;;;4.22;0.80;;;;;;;20.79;45.77;101228.97;5010619;28;97794;-77
2023/12/30 10:41:09;;;;;;;2.22;0.85;;;;;;;20.79;45.71;101236.91;5005680;28;96864;-77
2023/12/30 10:43:34;;;;;;;3.10;0.80;;;;;;;20.79;45.85;101236.91;5014963;28;108519;-76
2023/12/30 10:46:01;;;;;;;2.42;0.88;;;;;;;20.78;45.60;101233.38;5010652;28;97548;-78
2023/12/30 10:48:33;;;;;;;3.60;0.80;;;;;;;20.79;45.65;101232.47;5018714;28;96740;-78
2023/12/30 10:50:59;;;;;;;3.97;0.80;;;;;;;20.81;45.46;101232.44;5019402;28;98285;-78
2023/12/30 10:53:39;;;;;;;11.60;1.17;;;;;;;20.81;45.70;101238.59;5012983;28;96800;-80
2023/12/30 10:56:06;;;;;;;3.60;0.82;;;;;;;20.86;45.69;101239.38;5007914;28;98071;-80
2023/12/30 10:58:36;;;;;;;3.78;0.80;;;;;;;20.84;45.54;101245.63;5008087;28;97401;-80
2023/12/30 11:01:05;;;;;;;3.38;0.73;;;;;;;20.86;45.53;101236.72;5012661;28;96919;-77
2023/12/30 11:03:32;;;;;;;3.70;0.68;;;;;;;20.88;45.61;101239.34;5007393;28;97102;-77
2023/12/30 11:06:09;;;;;;;2.15;0.70;;;;;;;20.86;45.81;101227.91;4973623;28;99806;-76
2023/12/30 11:08:35;;;;;;;3.55;1.00;;;;;;;20.88;45.60;101223.44;4998300;28;97279;-76
2023/12/30 11:11:02;;;;;;;3.90;0.90;;;;;;;20.89;45.39;101214.53;5011040;28;96801;-76
2023/12/30 11:13:34;;;;;;;4.40;0.82;;;;;;;20.88;45.70;101213.69;4998155;28;97008;-78
2023/12/30 11:16:20;;;;;;;4.20;0.90;;;;;;;20.90;45.42;101211.00;5013151;28;96886;-80
2023/12/30 11:18:55;;;;;;;3.40;0.75;;;;;;;20.90;45.20;101203.91;4994188;28;97663;-80